Time;durP1;ratioP1;P1;durP2;ratioP2;P2;SDS_P1;SDS_P2;PMS_P1;PMS_P2;Temp;Humidity;BMP_temperature;BMP_pressure;BME280_temperature;BME280_humidity;BME280_pressure;Samples;Min_cycle;Max_cycle;Signal;HPM_P1;HPM_P2
2022/11/10 00:00:01;;;;;;;;;;;13.80;99.90;13.90;100019.00;;;;347849;28;90364;-91
2022/11/10 00:00:13;;;;;;;;;;;13.80;99.90;14.10;100016.00;;;;348644;28;82536;-92
2022/11/10 00:00:25;;;;;;;;;;;13.80;99.90;14.10;100019.00;;;;346723;28;88814;-91
2022/11/10 00:00:37;;;;;;;;;;;13.80;99.90;14.20;100016.00;;;;349722;27;83517;-91
2022/11/10 00:00:48;;;;;;;;;;;13.80;99.90;14.10;100018.00;;;;349281;27;88260;-91
2022/11/10 00:01:07;;;;;;;;;;;13.80;99.90;14.20;100021.00;;;;348369;27;82439;-91
2022/11/10 00:01:19;;;;;;;;;;;13.80;99.90;14.20;100022.00;;;;345195;28;90076;-91
2022/11/10 00:01:31;;;;;;;;;;;13.80;99.90;14.10;100017.00;;;;349469;27;83563;-91
2022/11/10 00:01:42;;;;;;;;;;;13.80;99.90;14.00;100022.00;;;;349092;27;91137;-92
2022/11/10 00:01:54;;;;;;;;;;;13.80;99.90;14.10;100017.00;;;;346679;28;83415;-91
2022/11/10 00:02:06;;;;;;;;;;;13.80;99.90;14.10;100016.00;;;;348149;28;90144;-91
2022/11/10 00:02:18;;;;;;;;;;;13.80;99.90;14.10;100018.00;;;;346674;28;82663;-91
2022/11/10 00:02:29;;;;;;;;;;;13.80;99.90;14.10;100018.00;;;;345149;28;91320;-91
2022/11/10 00:02:44;;;;;;;;;;;13.80;99.90;14.10;100017.00;;;;346949;28;82552;-91
2022/11/10 00:03:03;;;;;;;;;;;13.80;99.90;14.10;100022.00;;;;347711;28;90428;-92
2022/11/10 00:03:14;;;;;;;;;;;13.80;99.90;14.10;100016.00;;;;346809;28;83422;-92
2022/11/10 00:03:27;;;;;;;;;;;13.80;99.90;14.10;100010.00;;;;347561;28;91505;-91
2022/11/10 00:03:39;;;;;;;;;;;13.80;99.90;14.00;100010.00;;;;345687;28;83549;-91
2022/11/10 00:03:50;;;;;;;;;;;13.80;99.90;14.10;100015.00;;;;349599;27;90705;-91
2022/11/10 00:04:02;;;;;;;;;;;13.80;99.90;14.10;100015.00;;;;349590;27;82529;-91
2022/11/10 00:04:14;;;;;;;;;;;13.80;99.90;14.20;100023.00;;;;348000;28;91173;-91
2022/11/10 00:04:26;;;;;;;;;;;13.80;99.90;14.20;100016.00;;;;348062;28;82575;-91
2022/11/10 00:04:38;;;;;;;;;;;13.80;99.90;14.20;100015.00;;;;347685;28;92098;-91
2022/11/10 00:04:49;;;;;;;;;;;13.80;99.90;14.20;100019.00;;;;346704;28;82572;-91
2022/11/10 00:05:01;;;;;;;;;;;13.80;99.90;14.20;100017.00;;;;347442;28;92346;-91
2022/11/10 00:05:13;;;;;;;;;;;13.80;99.90;14.20;100013.00;;;;348953;27;82535;-91
2022/11/10 00:05:25;;;;;;;;;;;13.80;99.90;14.20;100003.00;;;;346028;28;90933;-91
2022/11/10 00:05:37;;;;;;;;;;;13.80;99.90;14.20;100016.00;;;;346469;28;82558;-91
2022/11/10 00:05:49;;;;;;;;;;;13.80;99.90;14.20;100011.00;;;;349248;27;91669;-91
2022/11/10 00:06:04;;;;;;;;;;;13.80;99.90;14.20;100016.00;;;;346853;28;83465;-91
2022/11/10 00:06:16;;;;;;;;;;;13.80;99.90;14.20;100011.00;;;;344637;28;88818;-91
2022/11/10 00:06:28;;;;;;;;;;;13.80;99.90;14.10;100022.00;;;;346637;28;82531;-91
2022/11/10 00:06:40;;;;;;;;;;;13.80;99.90;14.10;100015.00;;;;346165;28;91288;-92
2022/11/10 00:06:52;;;;;;;;;;;13.80;99.90;14.10;100019.00;;;;346478;28;83531;-92
2022/11/10 00:07:03;;;;;;;;;;;13.80;99.90;14.10;100020.00;;;;344802;28;90653;-91
2022/11/10 00:07:15;;;;;;;;;;;13.80;99.90;14.10;100013.00;;;;348340;28;82519;-92
2022/11/10 00:07:27;;;;;;;;;;;13.80;99.90;14.10;100018.00;;;;346358;28;89931;-91
2022/11/10 00:07:40;;;;;;;;;;;13.80;99.90;14.00;100012.00;;;;349248;27;83408;-91
2022/11/10 00:07:52;;;;;;;;;;;13.80;99.90;14.10;100011.00;;;;350118;27;91793;-91
2022/11/10 00:08:04;;;;;;;;;;;13.80;99.90;14.00;100016.00;;;;344717;28;83447;-91
2022/11/10 00:08:16;;;;;;;;;;;13.80;99.90;14.00;100015.00;;;;345849;28;91146;-91
2022/11/10 00:08:28;;;;;;;;;;;13.80;99.90;14.00;100020.00;;;;349081;27;82466;-91
2022/11/10 00:08:40;;;;;;;;;;;13.80;99.90;14.00;100017.00;;;;345679;28;89704;-92
2022/11/10 00:08:51;;;;;;;;;;;13.70;99.90;14.10;100013.00;;;;347476;28;83439;-91
2022/11/10 00:09:03;;;;;;;;;;;13.70;99.90;14.00;100013.00;;;;346960;28;90483;-91
2022/11/10 00:09:15;;;;;;;;;;;13.70;99.90;14.00;100013.00;;;;347270;28;83377;-92
2022/11/10 00:09:27;;;;;;;;;;;13.70;99.90;14.00;100012.00;;;;347131;28;90538;-91
2022/11/10 00:09:38;;;;;;;;;;;13.70;99.90;14.00;100010.00;;;;347383;28;83602;-92
2022/11/10 00:09:51;;;;;;;;;;;13.70;99.90;14.10;100016.00;;;;347120;28;90370;-91
2022/11/10 00:10:03;;;;;;;;;;;13.70;99.90;14.00;100007.00;;;;346134;28;82599;-91
2022/11/10 00:10:15;;;;;;;;;;;13.70;99.90;14.10;100010.00;;;;347078;28;91486;-92
2022/11/10 00:10:27;;;;;;;;;;;13.70;99.90;14.00;100015.00;;;;347597;28;83249;-92
2022/11/10 00:10:57;;;;;;;;;;;13.70;99.90;14.00;100008.00;;;;345680;28;91590;-91
2022/11/10 00:11:09;;;;;;;;;;;13.70;99.90;14.10;100008.00;;;;347611;28;83328;-91
2022/11/10 00:11:20;;;;;;;;;;;13.70;99.90;14.10;100011.00;;;;347094;28;91489;-91
2022/11/10 00:11:32;;;;;;;;;;;13.70;99.90;14.10;100012.00;;;;344651;28;82303;-92
2022/11/10 00:11:44;;;;;;;;;;;13.70;99.90;14.20;100012.00;;;;347141;28;90676;-91
2022/11/10 00:11:56;;;;;;;;;;;13.70;99.90;14.20;100003.00;;;;344825;28;82559;-92
2022/11/10 00:12:08;;;;;;;;;;;13.70;99.90;14.20;100010.00;;;;345673;28;90426;-92
2022/11/10 00:12:20;;;;;;;;;;;13.80;99.90;14.10;100007.00;;;;348938;27;82505;-91
2022/11/10 00:12:32;;;;;;;;;;;13.70;99.90;14.00;100013.00;;;;344292;28;91749;-91
2022/11/10 00:12:44;;;;;;;;;;;13.70;99.90;13.90;100016.00;;;;348892;27;83503;-92
2022/11/10 00:12:59;;;;;;;;;;;13.70;99.90;14.00;100017.00;;;;346955;28;93311;-91
2022/11/10 00:13:11;;;;;;;;;;;13.70;99.90;14.00;100013.00;;;;344755;28;82488;-91
2022/11/10 00:13:30;;;;;;;;;;;13.70;99.90;14.10;100007.00;;;;347005;28;91541;-91
2022/11/10 00:16:59;;;;;;;;;;;13.70;99.90;14.10;100011.00;;;;343239;28;83462;-91
2022/11/10 00:17:11;;;;;;;;;;;13.70;99.90;14.20;100004.00;;;;346892;27;92403;-91
2022/11/10 00:17:23;;;;;;;;;;;13.70;99.90;14.10;100008.00;;;;347477;28;83472;-91
2022/11/10 00:17:34;;;;;;;;;;;13.70;99.90;14.10;100012.00;;;;348553;27;90459;-92
2022/11/10 00:17:46;;;;;;;;;;;13.70;99.90;14.10;100003.00;;;;350171;27;82596;-91
2022/11/10 00:18:01;;;;;;;;;;;13.70;99.90;14.10;100019.00;;;;345659;28;90251;-91
2022/11/10 00:18:12;;;;;;;;;;;13.70;99.90;14.20;100013.00;;;;347351;28;83523;-92
2022/11/10 00:18:24;;;;;;;;;;;13.70;99.90;14.10;100013.00;;;;347091;28;90454;-91
2022/11/10 00:18:36;;;;;;;;;;;13.70;99.90;14.10;100012.00;;;;344737;28;83443;-91
2022/11/10 00:18:47;;;;;;;;;;;13.70;99.90;14.10;100012.00;;;;344239;28;92192;-92
2022/11/10 00:18:59;;;;;;;;;;;13.70;99.90;14.00;100015.00;;;;347517;28;83489;-92
2022/11/10 00:19:11;;;;;;;;;;;13.70;99.90;14.00;100011.00;;;;348376;27;92692;-92
2022/11/10 00:19:23;;;;;;;;;;;13.70;99.90;14.00;100011.00;;;;346065;28;83531;-92
2022/11/10 00:19:34;;;;;;;;;;;13.70;99.90;14.00;100006.00;;;;345643;28;90196;-92
2022/11/10 00:19:46;;;;;;;;;;;13.70;99.90;14.00;100018.00;;;;344906;28;82549;-91
2022/11/10 00:19:58;;;;;;;;;;;13.70;99.90;13.90;100012.00;;;;344221;28;91704;-92
2022/11/10 00:20:10;;;;;;;;;;;13.70;99.90;13.80;100014.00;;;;345941;28;83404;-91
2022/11/10 00:20:21;;;;;;;;;;;13.70;99.90;13.80;100008.00;;;;347070;28;90533;-91
2022/11/10 00:20:33;;;;;;;;;;;13.70;99.90;13.90;100004.00;;;;348874;27;83503;-92
2022/11/10 00:20:45;;;;;;;;;;;13.70;99.90;13.90;100013.00;;;;346815;28;91540;-91
2022/11/10 00:21:04;;;;;;;;;;;13.70;99.90;13.90;100008.00;;;;347487;28;83399;-92
2022/11/10 00:21:16;;;;;;;;;;;13.70;99.90;13.80;100011.00;;;;345660;28;92349;-91
2022/11/10 00:21:28;;;;;;;;;;;13.60;99.90;13.90;100012.00;;;;346093;28;82516;-91
2022/11/10 00:21:40;;;;;;;;;;;13.60;99.90;13.90;100017.00;;;;347010;28;92174;-92
2022/11/10 00:21:51;;;;;;;;;;;13.60;99.90;13.90;100016.00;;;;347441;28;83269;-91
2022/11/10 00:22:03;;;;;;;;;;;13.70;99.90;13.90;99998.00;;;;345354;28;92138;-91
2022/11/10 00:22:15;;;;;;;;;;;13.60;99.90;14.00;100012.00;;;;347364;28;83471;-92
2022/11/10 00:22:26;;;;;;;;;;;13.60;99.90;14.00;100013.00;;;;348425;27;89773;-91
2022/11/10 00:22:39;;;;;;;;;;;13.70;99.90;14.00;100012.00;;;;347537;28;83391;-91
2022/11/10 00:22:50;;;;;;;;;;;13.60;99.90;14.00;100011.00;;;;344086;28;88106;-91
2022/11/10 00:23:03;;;;;;;;;;;13.70;99.90;14.00;100009.00;;;;346026;28;83548;-92
2022/11/10 00:23:15;;;;;;;;;;;13.60;99.90;14.00;100010.00;;;;347049;28;91409;-91
2022/11/10 00:23:27;;;;;;;;;;;13.70;99.90;14.00;100010.00;;;;347152;28;83604;-91
2022/11/10 00:23:38;;;;;;;;;;;13.60;99.90;13.90;100012.00;;;;344387;28;90215;-91
2022/11/10 00:23:50;;;;;;;;;;;13.60;99.90;13.90;100009.00;;;;346090;28;83466;-91
2022/11/10 00:24:02;;;;;;;;;;;13.70;99.90;13.90;100008.00;;;;348507;27;91260;-92
2022/11/10 00:24:14;;;;;;;;;;;13.60;99.90;14.00;100015.00;;;;347445;27;82634;-91
2022/11/10 00:24:26;;;;;;;;;;;13.60;99.90;14.00;100009.00;;;;344338;28;90309;-91
2022/11/10 00:24:38;;;;;;;;;;;13.70;99.90;14.00;100013.00;;;;346095;28;83543;-91
2022/11/10 00:24:49;;;;;;;;;;;13.60;99.90;14.00;100010.00;;;;345641;28;90549;-92
2022/11/10 00:25:01;;;;;;;;;;;13.60;99.90;14.00;100017.00;;;;344741;28;82577;-91
2022/11/10 00:25:13;;;;;;;;;;;13.60;99.90;14.00;100012.00;;;;346845;28;91120;-91
2022/11/10 00:25:25;;;;;;;;;;;13.70;99.90;14.00;100016.00;;;;348888;27;82496;-91
2022/11/10 00:25:36;;;;;;;;;;;13.60;99.90;13.90;100022.00;;;;348438;27;91322;-92
2022/11/10 00:25:48;;;;;;;;;;;13.60;99.90;13.90;100004.00;;;;346148;28;83469;-92
2022/11/10 00:26:00;;;;;;;;;;;13.60;99.90;13.90;100018.00;;;;351055;27;90520;-91
2022/11/10 00:26:17;;;;;;;;;;;13.60;99.90;14.00;100019.00;;;;348873;27;83488;-91
2022/11/10 00:26:28;;;;;;;;;;;13.60;99.90;13.90;100011.00;;;;345514;28;92397;-92
2022/11/10 00:26:40;;;;;;;;;;;13.60;99.90;13.90;100011.00;;;;344728;28;83297;-91
2022/11/10 00:26:52;;;;;;;;;;;13.60;99.90;13.90;100019.00;;;;347018;28;90658;-91
2022/11/10 00:27:04;;;;;;;;;;;13.60;99.90;13.90;100016.00;;;;347476;28;83474;-91
2022/11/10 00:27:16;;;;;;;;;;;13.60;99.90;13.80;100005.00;;;;344111;28;91505;-91
2022/11/10 00:27:27;;;;;;;;;;;13.60;99.90;13.80;100017.00;;;;347530;28;83425;-91
2022/11/10 00:27:39;;;;;;;;;;;13.60;99.90;13.80;100012.00;;;;347014;28;91415;-91
2022/11/10 00:27:51;;;;;;;;;;;13.60;99.90;13.80;100016.00;;;;346264;28;83395;-91
2022/11/10 00:28:03;;;;;;;;;;;13.60;99.90;13.80;100012.00;;;;344294;28;89496;-91
2022/11/10 00:28:15;;;;;;;;;;;13.60;99.90;13.90;100011.00;;;;344734;28;83516;-91
2022/11/10 00:28:28;;;;;;;;;;;13.60;99.90;13.90;100018.00;;;;345751;28;90225;-91
2022/11/10 00:28:40;;;;;;;;;;;13.60;99.90;13.80;100012.00;;;;348975;27;83488;-91
2022/11/10 00:28:53;;;;;;;;;;;13.60;99.90;13.90;100021.00;;;;345692;28;91597;-92
2022/11/10 00:29:05;;;;;;;;;;;13.60;99.90;13.80;100011.00;;;;347519;28;82349;-92
2022/11/10 00:29:17;;;;;;;;;;;13.60;99.90;13.80;100020.00;;;;345741;28;90776;-91
2022/11/10 00:29:29;;;;;;;;;;;13.60;99.90;13.70;100013.00;;;;348631;27;83471;-91
2022/11/10 00:29:40;;;;;;;;;;;13.60;99.90;13.70;100017.00;;;;349985;27;90848;-91
2022/11/10 00:29:52;;;;;;;;;;;13.60;99.90;13.80;100021.00;;;;347561;28;83368;-91
2022/11/10 00:30:05;;;;;;;;;;;13.60;99.90;13.90;100011.00;;;;348404;27;91343;-91
2022/11/10 00:30:17;;;;;;;;;;;13.60;99.90;13.80;100016.00;;;;347519;28;82523;-91
2022/11/10 00:30:28;;;;;;;;;;;13.60;99.90;13.90;100017.00;;;;344457;28;90456;-91
2022/11/10 00:30:40;;;;;;;;;;;13.60;99.90;14.00;100021.00;;;;347618;28;83475;-91
2022/11/10 00:30:57;;;;;;;;;;;13.60;99.90;13.90;100022.00;;;;348707;27;90560;-91
2022/11/10 00:31:09;;;;;;;;;;;13.60;99.90;13.90;100029.00;;;;347736;28;82592;-91
2022/11/10 00:31:21;;;;;;;;;;;13.60;99.90;13.90;100020.00;;;;348825;27;91413;-91
2022/11/10 00:31:33;;;;;;;;;;;13.60;99.90;13.90;100022.00;;;;346305;28;82506;-92
2022/11/10 00:31:44;;;;;;;;;;;13.50;99.90;13.80;100016.00;;;;346102;28;91400;-91
2022/11/10 00:31:56;;;;;;;;;;;13.60;99.90;13.80;100025.00;;;;348056;28;83419;-91
2022/11/10 00:32:08;;;;;;;;;;;13.60;99.90;13.80;100024.00;;;;347421;28;91553;-91
2022/11/10 00:32:20;;;;;;;;;;;13.60;99.90;13.80;100025.00;;;;346462;28;82599;-91
2022/11/10 00:32:31;;;;;;;;;;;13.60;99.90;13.80;100022.00;;;;347591;28;90214;-91
2022/11/10 00:32:45;;;;;;;;;;;13.60;99.90;13.80;100026.00;;;;347667;28;82545;-91
2022/11/10 00:32:57;;;;;;;;;;;13.60;99.90;13.80;100021.00;;;;348938;27;91447;-91
2022/11/10 00:33:09;;;;;;;;;;;13.50;99.90;13.80;100018.00;;;;348062;28;82620;-91
2022/11/10 00:33:20;;;;;;;;;;;13.60;99.90;13.90;100026.00;;;;348765;27;91263;-91
2022/11/10 00:33:34;;;;;;;;;;;13.60;99.90;13.90;100025.00;;;;349295;27;82327;-91
2022/11/10 00:33:45;;;;;;;;;;;13.60;99.90;13.90;100020.00;;;;347246;28;91788;-91
2022/11/10 00:33:57;;;;;;;;;;;13.60;99.90;13.90;100025.00;;;;347727;28;82452;-91
2022/11/10 00:34:14;;;;;;;;;;;13.60;99.90;13.90;100033.00;;;;347024;28;91780;-91
2022/11/10 00:34:26;;;;;;;;;;;13.60;99.90;13.90;100033.00;;;;347746;28;83403;-91
2022/11/10 00:34:37;;;;;;;;;;;13.60;99.90;13.80;100026.00;;;;347220;28;92008;-91
2022/11/10 00:34:49;;;;;;;;;;;13.60;99.90;13.80;100026.00;;;;346245;28;82483;-91
2022/11/10 00:35:01;;;;;;;;;;;13.60;99.90;13.80;100024.00;;;;347346;28;90190;-91
2022/11/10 00:35:13;;;;;;;;;;;13.60;99.90;13.80;100031.00;;;;347784;28;83423;-91
2022/11/10 00:35:25;;;;;;;;;;;13.60;99.90;13.80;100029.00;;;;345828;28;92032;-91
2022/11/10 00:35:36;;;;;;;;;;;13.60;99.90;13.80;100037.00;;;;346299;28;82479;-91
2022/11/10 00:35:48;;;;;;;;;;;13.60;99.90;13.80;100025.00;;;;346123;28;90013;-91
2022/11/10 00:36:00;;;;;;;;;;;13.60;99.90;13.70;100040.00;;;;346220;28;83348;-91
2022/11/10 00:36:12;;;;;;;;;;;13.60;99.90;13.70;100030.00;;;;345601;28;91439;-91
2022/11/10 00:36:23;;;;;;;;;;;13.60;99.90;13.80;100031.00;;;;348935;27;82549;-92
2022/11/10 00:36:35;;;;;;;;;;;13.50;99.90;13.80;100025.00;;;;348478;27;91477;-91
2022/11/10 00:36:47;;;;;;;;;;;13.60;99.90;13.80;100031.00;;;;346043;28;83470;-92
2022/11/10 00:36:58;;;;;;;;;;;13.60;99.90;13.90;100031.00;;;;348413;27;91383;-91
2022/11/10 00:37:10;;;;;;;;;;;13.60;99.90;14.00;100034.00;;;;347584;28;82463;-91
2022/11/10 00:37:22;;;;;;;;;;;13.60;99.90;13.90;100041.00;;;;348544;27;88920;-92
2022/11/10 00:37:34;;;;;;;;;;;13.60;99.90;13.90;100030.00;;;;349280;27;83534;-92
2022/11/10 00:37:48;;;;;;;;;;;13.60;99.90;14.10;100037.00;;;;344585;28;91476;-92
2022/11/10 00:37:59;;;;;;;;;;;13.60;99.90;14.10;100034.00;;;;347555;28;82565;-92
2022/11/10 00:38:11;;;;;;;;;;;13.60;99.90;14.10;100041.00;;;;344428;28;89006;-91
2022/11/10 00:38:23;;;;;;;;;;;13.60;99.90;14.10;100031.00;;;;346065;28;83989;-91
2022/11/10 00:38:35;;;;;;;;;;;13.60;99.90;14.20;100036.00;;;;346243;28;92059;-92
2022/11/10 00:38:49;;;;;;;;;;;13.60;99.90;14.20;100034.00;;;;344729;28;82428;-91
2022/11/10 00:39:01;;;;;;;;;;;13.70;99.90;14.10;100036.00;;;;345733;28;91467;-91
2022/11/10 00:39:13;;;;;;;;;;;13.60;99.90;14.10;100039.00;;;;344472;28;82618;-91
2022/11/10 00:39:24;;;;;;;;;;;13.70;99.90;14.10;100033.00;;;;346989;28;91467;-92
2022/11/10 00:39:36;;;;;;;;;;;13.70;99.90;14.00;100038.00;;;;347653;27;83498;-91
2022/11/10 00:39:48;;;;;;;;;;;13.60;99.90;14.00;100036.00;;;;345276;28;92595;-91
2022/11/10 00:39:59;;;;;;;;;;;13.60;99.90;14.00;100029.00;;;;348874;27;83356;-92
2022/11/10 00:40:11;;;;;;;;;;;13.60;99.90;14.00;100038.00;;;;348346;27;91546;-91
2022/11/10 00:40:23;;;;;;;;;;;13.60;99.90;14.00;100039.00;;;;344724;28;83445;-91
2022/11/10 00:40:34;;;;;;;;;;;13.60;99.90;14.00;100030.00;;;;348393;27;91391;-92
2022/11/10 00:40:46;;;;;;;;;;;13.70;99.90;14.10;100037.00;;;;350162;27;83311;-91
2022/11/10 00:40:59;;;;;;;;;;;13.60;99.90;14.10;100038.00;;;;348431;27;91596;-91
2022/11/10 00:41:10;;;;;;;;;;;13.70;99.90;14.20;100036.00;;;;347616;28;82448;-91
2022/11/10 00:41:22;;;;;;;;;;;13.70;99.90;14.10;100033.00;;;;349818;27;92540;-92
2022/11/10 00:41:34;;;;;;;;;;;13.70;99.90;14.10;100032.00;;;;345981;28;82551;-92
2022/11/10 00:41:46;;;;;;;;;;;13.70;99.90;14.00;100032.00;;;;344314;28;90910;-92
2022/11/10 00:41:58;;;;;;;;;;;13.70;99.90;14.10;100040.00;;;;349114;27;83441;-92
2022/11/10 00:42:09;;;;;;;;;;;13.70;99.90;14.00;100033.00;;;;347004;28;91244;-92
2022/11/10 00:42:21;;;;;;;;;;;13.70;99.90;14.00;100031.00;;;;348854;27;83541;-92
2022/11/10 00:42:33;;;;;;;;;;;13.70;99.90;14.00;100035.00;;;;348340;27;91754;-91
2022/11/10 00:42:44;;;;;;;;;;;13.70;99.90;14.00;100041.00;;;;345798;28;83503;-91
2022/11/10 00:42:56;;;;;;;;;;;13.70;99.90;14.00;100041.00;;;;344134;28;91873;-91
2022/11/10 00:43:08;;;;;;;;;;;13.70;99.90;13.90;100042.00;;;;346141;28;83441;-91
2022/11/10 00:43:20;;;;;;;;;;;13.70;99.90;13.90;100044.00;;;;346999;28;91400;-91
2022/11/10 00:43:37;;;;;;;;;;;13.70;99.90;13.80;100038.00;;;;346050;28;83510;-91
2022/11/10 00:43:48;;;;;;;;;;;13.60;99.90;13.80;100043.00;;;;349790;27;91288;-91
2022/11/10 00:44:00;;;;;;;;;;;13.70;99.90;13.80;100046.00;;;;350416;27;83388;-92
2022/11/10 00:44:12;;;;;;;;;;;13.60;99.90;13.80;100037.00;;;;347056;28;91515;-92
2022/11/10 00:44:24;;;;;;;;;;;13.60;99.90;13.90;100044.00;;;;347438;28;83565;-92
2022/11/10 00:44:35;;;;;;;;;;;13.70;99.90;13.80;100033.00;;;;348443;27;90563;-91
2022/11/10 00:44:47;;;;;;;;;;;13.60;99.90;13.80;100044.00;;;;347411;28;83271;-92
2022/11/10 00:44:59;;;;;;;;;;;13.60;99.90;13.80;100040.00;;;;349869;27;91406;-92
2022/11/10 00:45:10;;;;;;;;;;;13.60;99.90;13.70;100044.00;;;;347526;28;83419;-92
2022/11/10 00:45:22;;;;;;;;;;;13.60;99.90;13.70;100039.00;;;;345646;28;92352;-91
2022/11/10 00:45:34;;;;;;;;;;;13.60;99.90;13.70;100042.00;;;;348785;27;82568;-91
2022/11/10 00:45:46;;;;;;;;;;;13.60;99.90;13.70;100039.00;;;;349855;27;90670;-92
2022/11/10 00:45:57;;;;;;;;;;;13.60;99.90;13.70;100044.00;;;;348876;27;83458;-92
2022/11/10 00:46:09;;;;;;;;;;;13.60;99.90;13.70;100036.00;;;;347015;28;90366;-92
2022/11/10 00:46:21;;;;;;;;;;;13.60;99.90;13.70;100042.00;;;;347434;28;83463;-91
2022/11/10 00:46:32;;;;;;;;;;;13.60;99.90;13.80;100041.00;;;;347058;28;91575;-92
2022/11/10 00:46:44;;;;;;;;;;;13.60;99.90;13.80;100045.00;;;;345768;28;83929;-92
2022/11/10 00:46:56;;;;;;;;;;;13.60;99.90;13.80;100046.00;;;;346906;28;91094;-91
2022/11/10 00:47:08;;;;;;;;;;;13.60;99.90;13.80;100040.00;;;;348887;27;82585;-91
2022/11/10 00:47:20;;;;;;;;;;;13.60;99.90;13.80;100044.00;;;;347042;28;91390;-91
2022/11/10 00:47:31;;;;;;;;;;;13.60;99.90;13.80;100047.00;;;;347458;28;83514;-92
2022/11/10 00:47:44;;;;;;;;;;;13.60;99.90;13.70;100054.00;;;;348436;27;92472;-91
2022/11/10 00:47:56;;;;;;;;;;;13.60;99.90;13.70;100039.00;;;;347433;28;83498;-92
2022/11/10 00:48:08;;;;;;;;;;;13.60;99.90;13.70;100054.00;;;;347080;28;90872;-91
2022/11/10 00:48:20;;;;;;;;;;;13.60;99.90;13.70;100051.00;;;;347498;28;83465;-91
2022/11/10 00:48:31;;;;;;;;;;;13.50;99.90;13.70;100046.00;;;;345664;28;90279;-91
2022/11/10 00:48:43;;;;;;;;;;;13.50;99.90;13.70;100056.00;;;;347486;28;83434;-91
2022/11/10 00:48:55;;;;;;;;;;;13.50;99.90;13.70;100051.00;;;;347100;28;90333;-91
2022/11/10 00:49:06;;;;;;;;;;;13.50;99.90;13.80;100045.00;;;;347428;28;82529;-92
2022/11/10 00:49:18;;;;;;;;;;;13.60;99.90;13.70;100043.00;;;;346944;28;92673;-91
2022/11/10 00:49:30;;;;;;;;;;;13.50;99.90;13.70;100054.00;;;;348836;27;83481;-91
2022/11/10 00:49:43;;;;;;;;;;;13.60;99.90;13.70;100047.00;;;;349775;27;91207;-92
2022/11/10 00:49:55;;;;;;;;;;;13.50;99.90;13.80;100057.00;;;;347432;28;82436;-92
2022/11/10 00:50:07;;;;;;;;;;;13.50;99.90;13.80;100054.00;;;;349788;27;91873;-91
2022/11/10 00:50:19;;;;;;;;;;;13.60;99.90;13.70;100048.00;;;;350217;27;83493;-92
2022/11/10 00:50:30;;;;;;;;;;;13.50;99.90;13.70;100053.00;;;;346710;28;90669;-91
2022/11/10 00:50:42;;;;;;;;;;;13.50;99.90;13.70;100054.00;;;;347384;28;82574;-92
2022/11/10 00:50:54;;;;;;;;;;;13.50;99.90;13.70;100055.00;;;;349636;27;89446;-92
2022/11/10 00:51:06;;;;;;;;;;;13.50;99.90;13.70;100053.00;;;;350370;27;83367;-91
2022/11/10 00:51:26;;;;;;;;;;;13.50;99.90;13.70;100057.00;;;;347023;28;92482;-92
2022/11/10 00:51:38;;;;;;;;;;;13.50;99.90;13.70;100045.00;;;;346041;28;83537;-92
2022/11/10 00:51:49;;;;;;;;;;;13.50;99.90;13.70;100042.00;;;;347035;28;91333;-92
2022/11/10 00:52:01;;;;;;;;;;;13.50;99.90;13.70;100052.00;;;;347586;28;82633;-92
2022/11/10 00:52:13;;;;;;;;;;;13.50;99.90;13.70;100057.00;;;;345698;28;90830;-91
2022/11/10 00:52:25;;;;;;;;;;;13.50;99.90;13.80;100053.00;;;;350347;27;82407;-92
2022/11/10 00:52:36;;;;;;;;;;;13.50;99.90;13.80;100053.00;;;;348235;27;89730;-91
2022/11/10 00:52:48;;;;;;;;;;;13.50;99.90;13.80;100050.00;;;;347645;28;83482;-91
2022/11/10 00:53:00;;;;;;;;;;;13.50;99.90;13.80;100056.00;;;;347238;28;90450;-91
2022/11/10 00:53:12;;;;;;;;;;;13.50;99.90;13.80;100050.00;;;;347920;28;83393;-92
2022/11/10 00:53:23;;;;;;;;;;;13.50;99.90;13.80;100048.00;;;;347067;28;91823;-91
2022/11/10 00:53:35;;;;;;;;;;;13.50;99.90;13.80;100055.00;;;;346391;28;83538;-92
2022/11/10 00:53:47;;;;;;;;;;;13.50;99.90;13.80;100053.00;;;;350341;27;90156;-91
2022/11/10 00:53:59;;;;;;;;;;;13.50;99.90;13.80;100049.00;;;;349172;27;83572;-92
2022/11/10 00:54:11;;;;;;;;;;;13.50;99.90;13.80;100046.00;;;;344424;28;90120;-92
2022/11/10 00:54:22;;;;;;;;;;;13.50;99.90;13.80;100050.00;;;;349141;27;83422;-91
2022/11/10 00:54:34;;;;;;;;;;;13.50;99.90;13.80;100052.00;;;;348727;27;90196;-91
2022/11/10 00:54:46;;;;;;;;;;;13.50;99.90;13.70;100050.00;;;;349154;27;83355;-92
2022/11/10 00:54:57;;;;;;;;;;;13.50;99.90;13.70;100052.00;;;;345990;28;91544;-92
2022/11/10 00:55:09;;;;;;;;;;;13.50;99.90;13.70;100050.00;;;;347864;28;82571;-92
2022/11/10 00:55:21;;;;;;;;;;;13.50;99.90;13.70;100056.00;;;;350211;27;92265;-92
2022/11/10 00:55:35;;;;;;;;;;;13.50;99.90;13.70;100057.00;;;;347793;28;82542;-92
2022/11/10 00:55:47;;;;;;;;;;;13.50;99.90;13.70;100052.00;;;;344766;28;90223;-92
2022/11/10 00:55:59;;;;;;;;;;;13.50;99.90;13.70;100055.00;;;;347983;28;83419;-91
2022/11/10 00:56:11;;;;;;;;;;;13.50;99.90;13.70;100051.00;;;;348779;27;91670;-92
2022/11/10 00:56:23;;;;;;;;;;;13.50;99.90;13.80;100057.00;;;;344801;28;82565;-92
2022/11/10 00:56:34;;;;;;;;;;;13.50;99.90;13.80;100051.00;;;;348471;27;90482;-91
2022/11/10 00:56:46;;;;;;;;;;;13.50;99.90;13.80;100047.00;;;;349246;27;83457;-91
2022/11/10 00:56:58;;;;;;;;;;;13.50;99.90;13.80;100050.00;;;;348672;27;92287;-92
2022/11/10 00:57:09;;;;;;;;;;;13.50;99.90;13.80;100056.00;;;;347879;28;83293;-92
2022/11/10 00:57:21;;;;;;;;;;;13.50;99.90;13.80;100049.00;;;;345828;28;92358;-91
2022/11/10 00:57:33;;;;;;;;;;;13.50;99.90;13.80;100052.00;;;;348712;27;82584;-92
2022/11/10 00:57:45;;;;;;;;;;;13.50;99.90;13.80;100057.00;;;;347203;28;89577;-92
2022/11/10 00:57:56;;;;;;;;;;;13.50;99.90;13.80;100046.00;;;;346171;28;83393;-92
2022/11/10 00:58:08;;;;;;;;;;;13.50;99.90;13.80;100057.00;;;;347392;28;90447;-91
2022/11/10 00:58:20;;;;;;;;;;;13.50;99.90;13.80;100053.00;;;;350554;27;83565;-92
2022/11/10 00:58:31;;;;;;;;;;;13.50;99.90;13.80;100052.00;;;;347293;28;91285;-91
2022/11/10 00:58:43;;;;;;;;;;;13.50;99.90;13.80;100055.00;;;;346278;28;82566;-91
2022/11/10 00:58:55;;;;;;;;;;;13.50;99.90;13.80;100057.00;;;;348757;27;90185;-91
2022/11/10 00:59:06;;;;;;;;;;;13.50;99.90;13.80;100053.00;;;;349192;27;82546;-92
2022/11/10 00:59:18;;;;;;;;;;;13.50;99.90;13.80;100056.00;;;;345881;28;92250;-92
2022/11/10 00:59:30;;;;;;;;;;;13.50;99.90;13.80;100049.00;;;;348737;27;83566;-91
2022/11/10 00:59:41;;;;;;;;;;;13.50;99.90;13.80;100055.00;;;;350059;27;91202;-91
2022/11/10 00:59:53;;;;;;;;;;;13.50;99.90;13.70;100061.00;;;;349014;27;82497;-91
2022/11/10 01:00:05;;;;;;;;;;;13.50;99.90;13.70;100056.00;;;;347282;28;92199;-92
2022/11/10 01:00:19;;;;;;;;;;;13.50;99.90;13.70;100062.00;;;;348318;27;83578;-91
2022/11/10 01:00:30;;;;;;;;;;;13.50;99.90;13.80;100055.00;;;;347307;28;91270;-92
2022/11/10 01:00:42;;;;;;;;;;;13.50;99.90;13.80;100057.00;;;;347831;28;82440;-92
2022/11/10 01:01:01;;;;;;;;;;;13.50;99.90;13.80;100061.00;;;;347378;28;91503;-92
2022/11/10 01:01:14;;;;;;;;;;;13.50;99.90;13.80;100060.00;;;;347458;28;83521;-91
2022/11/10 01:01:26;;;;;;;;;;;13.50;99.90;13.80;100060.00;;;;345585;28;91522;-91
2022/11/10 01:01:37;;;;;;;;;;;13.50;99.90;13.70;100057.00;;;;348844;27;83446;-91
2022/11/10 01:01:49;;;;;;;;;;;13.50;99.90;13.70;100062.00;;;;348640;27;90290;-91
2022/11/10 01:02:01;;;;;;;;;;;13.50;99.90;13.70;100063.00;;;;347365;28;83431;-91
2022/11/10 01:02:13;;;;;;;;;;;13.50;99.90;13.70;100059.00;;;;348480;27;91396;-91
2022/11/10 01:02:24;;;;;;;;;;;13.50;99.90;13.70;100060.00;;;;347581;28;83281;-91
2022/11/10 01:02:36;;;;;;;;;;;13.50;99.90;13.70;100060.00;;;;344248;28;91392;-92